Time;durP1;ratioP1;P1;durP2;ratioP2;P2;SDS_P1;SDS_P2;PMS_P1;PMS_P2;Temp;Humidity;BMP_temperature;BMP_pressure;BME280_temperature;BME280_humidity;BME280_pressure;Samples;Min_cycle;Max_cycle;Signal;HPM_P1;HPM_P2
2021/07/08 00:00:46;;;;;;;3.63;1.58;;;26.30;96.70;;;;;;4920190;29;20460;-70
2021/07/08 00:03:15;;;;;;;4.25;1.60;;;26.30;96.70;;;;;;4919723;29;20062;-69
2021/07/08 00:05:44;;;;;;;4.03;1.45;;;26.30;96.70;;;;;;4902740;29;20051;-70
2021/07/08 00:08:14;;;;;;;4.00;1.58;;;26.30;96.70;;;;;;4904285;29;20138;-70
2021/07/08 00:10:45;;;;;;;3.08;1.92;;;26.30;96.70;;;;;;4902544;29;20066;-70
2021/07/08 00:13:15;;;;;;;2.42;1.52;;;26.20;96.70;;;;;;4915834;29;20410;-70
2021/07/08 00:15:44;;;;;;;2.80;2.03;;;26.10;96.70;;;;;;4907136;29;20492;-70
2021/07/08 00:18:13;;;;;;;4.95;1.80;;;26.00;96.70;;;;;;4916600;29;20062;-70
2021/07/08 00:20:45;;;;;;;3.17;1.50;;;26.00;96.70;;;;;;4917151;29;20671;-70
2021/07/08 00:23:16;;;;;;;6.70;1.95;;;26.10;96.70;;;;;;4901360;29;20048;-71
2021/07/08 00:25:47;;;;;;;3.88;1.60;;;26.10;96.70;;;;;;4920767;29;20048;-70
2021/07/08 00:28:16;;;;;;;3.88;1.90;;;26.10;96.70;;;;;;4920905;29;20050;-70
2021/07/08 00:30:47;;;;;;;2.58;1.60;;;26.00;96.70;;;;;;4916924;29;20127;-70
2021/07/08 00:33:15;;;;;;;4.85;2.03;;;26.00;96.70;;;;;;4900328;29;20044;-71
2021/07/08 00:35:44;;;;;;;3.88;1.70;;;25.90;96.70;;;;;;4920769;29;20055;-69
2021/07/08 00:38:13;;;;;;;3.90;1.83;;;26.00;96.70;;;;;;4921295;28;20103;-70
2021/07/08 00:40:43;;;;;;;5.30;1.90;;;25.90;96.70;;;;;;4916865;29;20129;-70
2021/07/08 00:43:11;;;;;;;6.25;1.85;;;25.90;96.70;;;;;;4905520;29;20047;-70
2021/07/08 00:45:40;;;;;;;4.63;1.90;;;26.00;96.70;;;;;;4903390;29;20048;-70
2021/07/08 00:48:09;;;;;;;3.45;1.73;;;26.00;96.70;;;;;;4903760;29;20067;-70
2021/07/08 00:50:42;;;;;;;4.78;2.08;;;26.00;96.70;;;;;;4901209;29;20048;-69
2021/07/08 00:53:11;;;;;;;2.42;1.63;;;26.00;96.70;;;;;;4902681;29;20052;-70
2021/07/08 00:55:45;;;;;;;4.10;1.55;;;25.90;96.70;;;;;;4918899;29;20044;-70
2021/07/08 00:58:15;;;;;;;3.05;2.33;;;25.80;96.70;;;;;;4922150;29;20055;-70
2021/07/08 01:00:44;;;;;;;6.65;2.38;;;25.80;96.70;;;;;;4924763;29;20036;-70
2021/07/08 01:03:14;;;;;;;5.40;3.03;;;25.80;96.70;;;;;;4918334;29;20047;-70
2021/07/08 01:05:45;;;;;;;9.07;3.75;;;25.70;96.70;;;;;;4905168;29;20043;-69
2021/07/08 01:08:13;;;;;;;6.97;3.80;;;25.70;96.70;;;;;;4907436;29;20055;-69
2021/07/08 01:10:46;;;;;;;7.78;4.10;;;25.60;96.70;;;;;;4920535;29;20500;-70
2021/07/08 01:13:15;;;;;;;6.82;4.03;;;25.50;96.70;;;;;;4905593;29;20056;-70
2021/07/08 01:15:44;;;;;;;13.00;7.25;;;25.50;96.70;;;;;;4901246;29;20561;-69
2021/07/08 01:18:13;;;;;;;16.15;7.00;;;25.70;96.70;;;;;;4922390;28;20032;-70
2021/07/08 01:20:44;;;;;;;9.45;5.32;;;25.60;96.70;;;;;;4902855;29;20423;-69
2021/07/08 01:23:14;;;;;;;8.43;5.47;;;25.60;96.70;;;;;;4890348;29;20032;-70
2021/07/08 01:25:42;;;;;;;6.00;3.58;;;25.60;96.70;;;;;;4921170;29;20429;-69
2021/07/08 01:28:11;;;;;;;3.70;2.38;;;25.50;96.70;;;;;;4908180;29;20417;-69
2021/07/08 01:30:44;;;;;;;6.97;2.58;;;25.40;96.70;;;;;;4921669;29;20040;-69
2021/07/08 01:33:12;;;;;;;3.92;2.00;;;25.40;96.70;;;;;;4920616;29;20055;-70
2021/07/08 01:35:41;;;;;;;5.28;2.42;;;25.40;96.70;;;;;;4924824;29;20580;-69
2021/07/08 01:38:10;;;;;;;5.85;2.88;;;25.50;96.70;;;;;;4890947;29;20055;-70
2021/07/08 01:40:40;;;;;;;6.03;2.85;;;25.40;96.70;;;;;;4920924;29;20036;-69
2021/07/08 01:43:08;;;;;;;7.00;2.42;;;25.30;96.70;;;;;;4921719;29;20051;-69
2021/07/08 01:45:36;;;;;;;4.55;1.98;;;25.30;96.70;;;;;;4922115;29;20079;-70
2021/07/08 01:48:05;;;;;;;3.15;1.80;;;25.30;96.70;;;;;;4906088;29;20051;-70
2021/07/08 01:50:34;;;;;;;3.65;1.70;;;25.40;96.70;;;;;;4918142;29;20143;-70
2021/07/08 01:53:03;;;;;;;4.00;1.88;;;25.40;96.70;;;;;;4921520;29;20301;-70
2021/07/08 01:55:32;;;;;;;4.18;1.67;;;25.30;96.70;;;;;;4905491;29;20051;-70
2021/07/08 01:58:02;;;;;;;2.85;1.80;;;25.20;96.70;;;;;;4923036;29;20114;-70
2021/07/08 02:00:31;;;;;;;4.30;1.90;;;25.20;96.70;;;;;;4919686;29;20090;-70
2021/07/08 02:02:59;;;;;;;4.13;1.67;;;25.20;96.70;;;;;;4903866;29;20040;-70
2021/07/08 02:05:27;;;;;;;9.43;1.83;;;25.20;96.70;;;;;;4922970;29;20420;-70
2021/07/08 02:07:56;;;;;;;4.00;1.50;;;25.10;96.70;;;;;;4917964;29;20082;-71
2021/07/08 02:10:24;;;;;;;8.55;2.25;;;24.90;96.70;;;;;;4923350;29;20472;-70
2021/07/08 02:12:53;;;;;;;4.28;1.73;;;24.80;96.70;;;;;;4918472;29;20039;-70
2021/07/08 02:15:24;;;;;;;5.45;1.98;;;24.70;96.70;;;;;;4923014;29;20890;-70
2021/07/08 02:17:52;;;;;;;4.20;1.80;;;24.90;96.70;;;;;;4923113;29;20044;-70
2021/07/08 02:20:20;;;;;;;2.53;1.80;;;25.00;96.70;;;;;;4921016;29;20044;-70
2021/07/08 02:22:49;;;;;;;4.20;1.73;;;24.90;96.70;;;;;;4914876;29;20492;-70
2021/07/08 02:25:18;;;;;;;5.45;2.38;;;24.80;96.70;;;;;;4917713;29;20491;-70
2021/07/08 02:27:47;;;;;;;6.00;2.70;;;24.80;96.70;;;;;;4906239;29;20066;-71
2021/07/08 02:30:18;;;;;;;2.90;1.52;;;24.70;96.70;;;;;;4919315;29;20044;-70
2021/07/08 02:32:51;;;;;;;3.20;1.90;;;24.60;96.70;;;;;;4910238;29;20046;-70
2021/07/08 02:35:21;;;;;;;3.13;1.70;;;24.50;96.70;;;;;;4920827;29;20076;-73
2021/07/08 02:37:52;;;;;;;5.20;2.22;;;24.60;96.70;;;;;;4906377;29;20051;-72
2021/07/08 02:40:23;;;;;;;3.90;2.42;;;24.80;96.70;;;;;;4905223;29;20048;-72
2021/07/08 02:42:52;;;;;;;4.70;2.00;;;24.80;96.70;;;;;;4921125;28;20274;-72
2021/07/08 02:45:23;;;;;;;4.20;2.25;;;24.90;96.70;;;;;;4904080;29;20051;-72
2021/07/08 02:47:54;;;;;;;2.83;2.00;;;24.90;96.70;;;;;;4918546;29;20054;-72
2021/07/08 02:50:25;;;;;;;4.15;2.40;;;25.00;96.70;;;;;;4922203;29;20102;-72
2021/07/08 02:52:54;;;;;;;5.32;1.73;;;25.00;96.70;;;;;;4926364;28;20173;-72
2021/07/08 02:55:23;;;;;;;2.85;1.77;;;25.00;96.70;;;;;;4918353;29;20119;-72
2021/07/08 02:57:52;;;;;;;4.47;1.70;;;24.90;96.70;;;;;;4921488;29;20047;-72
2021/07/08 03:00:22;;;;;;;4.00;2.00;;;24.80;96.70;;;;;;4920316;29;20044;-72
2021/07/08 03:02:52;;;;;;;5.65;2.03;;;24.60;96.70;;;;;;4924827;28;20062;-72
2021/07/08 03:05:22;;;;;;;4.63;1.88;;;24.40;96.70;;;;;;4920725;29;20058;-72
2021/07/08 03:07:51;;;;;;;5.70;2.10;;;24.10;96.70;;;;;;4906836;29;20044;-72
2021/07/08 03:10:21;;;;;;;4.15;1.88;;;24.10;96.70;;;;;;4886770;29;20043;-72
2021/07/08 03:12:50;;;;;;;2.60;1.70;;;24.20;96.70;;;;;;4926581;29;20036;-72
2021/07/08 03:15:19;;;;;;;4.03;1.90;;;24.20;96.70;;;;;;4919593;29;20516;-72
2021/07/08 03:17:48;;;;;;;6.00;2.17;;;24.10;96.70;;;;;;4922105;28;20057;-72
2021/07/08 03:20:21;;;;;;;4.10;2.00;;;24.00;96.70;;;;;;4918056;29;20047;-72
2021/07/08 03:22:50;;;;;;;2.55;1.75;;;24.00;96.70;;;;;;4919393;29;20969;-72
2021/07/08 03:25:20;;;;;;;4.82;2.08;;;24.00;96.70;;;;;;4924263;29;20043;-72
2021/07/08 03:27:49;;;;;;;5.47;2.20;;;24.00;96.70;;;;;;4918457;29;20307;-72
2021/07/08 03:30:21;;;;;;;3.35;2.10;;;24.10;96.70;;;;;;4922972;29;20520;-72
2021/07/08 03:32:50;;;;;;;3.30;2.70;;;24.20;96.70;;;;;;4923366;29;20055;-73
2021/07/08 03:35:25;;;;;;;4.35;2.40;;;24.30;96.70;;;;;;4925995;29;20382;-72
2021/07/08 03:37:54;;;;;;;5.97;1.95;;;24.20;96.70;;;;;;4925469;29;20051;-72
2021/07/08 03:40:23;;;;;;;4.90;2.10;;;24.00;96.70;;;;;;4921074;29;20122;-72
2021/07/08 03:42:52;;;;;;;5.28;2.28;;;23.90;96.70;;;;;;4922821;29;20122;-72
2021/07/08 03:45:23;;;;;;;5.13;2.15;;;24.00;96.70;;;;;;4924903;29;20047;-72
2021/07/08 03:47:52;;;;;;;4.65;1.80;;;24.10;96.70;;;;;;4906266;29;20099;-72
2021/07/08 03:50:21;;;;;;;6.90;2.17;;;24.10;96.70;;;;;;4926111;29;20056;-72
2021/07/08 03:52:51;;;;;;;3.90;1.80;;;24.20;96.70;;;;;;4909077;29;20051;-72
2021/07/08 03:55:22;;;;;;;4.38;2.20;;;24.20;96.70;;;;;;4908778;29;20215;-72
2021/07/08 03:57:57;;;;;;;7.90;2.42;;;24.30;96.70;;;;;;4910783;29;20489;-72
2021/07/08 04:00:32;;;;;;;7.28;2.60;;;24.30;96.70;;;;;;4920208;29;20135;-72
2021/07/08 04:03:04;;;;;;;3.80;2.63;;;24.20;96.70;;;;;;4925963;29;20043;-72
2021/07/08 04:05:34;;;;;;;7.18;2.85;;;24.10;96.70;;;;;;4926160;29;20532;-72
2021/07/08 04:08:06;;;;;;;7.30;2.67;;;23.90;96.70;;;;;;4906665;29;20044;-72
2021/07/08 04:10:37;;;;;;;3.45;2.25;;;23.90;96.70;;;;;;4926621;29;20152;-72
2021/07/08 04:13:09;;;;;;;7.07;2.53;;;23.90;96.70;;;;;;4909354;29;20058;-72
2021/07/08 04:15:39;;;;;;;6.40;2.63;;;23.90;96.70;;;;;;4925370;29;20043;-72
2021/07/08 04:18:08;;;;;;;5.85;2.17;;;24.10;96.70;;;;;;4899721;29;20616;-72
2021/07/08 04:20:38;;;;;;;4.25;2.25;;;24.20;96.70;;;;;;4921589;29;20044;-72
2021/07/08 04:23:09;;;;;;;4.55;2.13;;;24.20;96.70;;;;;;4921653;29;20311;-72
2021/07/08 04:25:39;;;;;;;3.88;2.33;;;24.20;96.70;;;;;;4923422;29;20051;-72
2021/07/08 04:28:10;;;;;;;4.75;2.22;;;24.30;96.70;;;;;;4907790;29;20040;-72
2021/07/08 04:30:40;;;;;;;4.95;2.50;;;24.40;96.70;;;;;;4926197;29;20044;-74
2021/07/08 04:33:09;;;;;;;5.60;2.10;;;24.50;96.70;;;;;;4923106;29;20367;-73
2021/07/08 04:35:41;;;;;;;5.47;2.50;;;24.60;96.70;;;;;;4926201;29;20047;-73
2021/07/08 04:38:13;;;;;;;4.72;2.40;;;24.50;96.70;;;;;;4909712;29;20141;-73
2021/07/08 04:40:43;;;;;;;5.80;2.58;;;24.60;96.70;;;;;;4905364;29;20115;-71
2021/07/08 04:43:12;;;;;;;5.60;2.58;;;24.60;96.70;;;;;;4913658;29;20036;-72
2021/07/08 04:45:43;;;;;;;3.95;2.72;;;24.60;96.70;;;;;;4906347;29;20075;-71
2021/07/08 04:48:13;;;;;;;5.13;2.65;;;24.60;96.70;;;;;;4907821;29;20044;-72
2021/07/08 04:50:42;;;;;;;4.93;2.45;;;24.70;96.70;;;;;;4924958;29;20036;-71
2021/07/08 04:53:16;;;;;;;3.92;2.60;;;24.70;96.70;;;;;;4908658;29;20587;-72
2021/07/08 04:55:45;;;;;;;5.50;2.72;;;24.70;96.70;;;;;;4924232;29;20054;-71
2021/07/08 04:58:14;;;;;;;3.00;1.83;;;24.70;96.70;;;;;;4926751;29;20305;-72
2021/07/08 05:00:43;;;;;;;3.45;2.47;;;24.80;96.70;;;;;;4929160;29;20533;-71
2021/07/08 05:03:13;;;;;;;4.65;2.35;;;24.70;96.70;;;;;;4926691;29;20054;-72
2021/07/08 05:05:42;;;;;;;4.05;2.78;;;24.70;96.70;;;;;;4922848;29;20035;-71
2021/07/08 05:08:10;;;;;;;4.20;2.67;;;24.70;96.70;;;;;;4906352;29;20579;-71
2021/07/08 05:10:41;;;;;;;6.88;2.92;;;24.80;96.70;;;;;;4925021;29;20043;-72
2021/07/08 05:13:10;;;;;;;5.82;2.97;;;24.80;96.70;;;;;;4927327;29;20552;-72
2021/07/08 05:15:39;;;;;;;6.32;2.28;;;24.70;96.70;;;;;;4923939;29;20044;-71
2021/07/08 05:18:08;;;;;;;5.20;2.95;;;24.80;96.70;;;;;;4924562;29;20103;-72
2021/07/08 05:20:38;;;;;;;9.27;2.58;;;24.70;96.70;;;;;;4923727;29;20379;-71
2021/07/08 05:23:17;;;;;;;3.67;2.53;;;24.70;96.70;;;;;;4921720;29;20052;-71
2021/07/08 05:25:50;;;;;;;8.13;2.92;;;24.70;96.70;;;;;;4909220;29;20054;-71
2021/07/08 05:28:19;;;;;;;7.10;2.83;;;24.80;96.70;;;;;;4926870;28;20048;-71
2021/07/08 05:30:48;;;;;;;5.47;2.58;;;24.90;96.70;;;;;;4928538;29;20040;-72
2021/07/08 05:33:17;;;;;;;5.82;3.90;;;24.90;96.70;;;;;;4925172;29;20223;-71
2021/07/08 05:35:48;;;;;;;5.85;3.67;;;24.90;96.70;;;;;;4921928;29;20047;-71
2021/07/08 05:38:16;;;;;;;5.25;3.30;;;24.90;96.70;;;;;;4926942;29;20491;-71
2021/07/08 05:40:47;;;;;;;6.28;4.15;;;25.00;96.70;;;;;;4927279;29;20050;-71
2021/07/08 05:43:17;;;;;;;7.13;3.97;;;25.00;96.70;;;;;;4926961;29;20043;-71
2021/07/08 05:45:45;;;;;;;7.60;3.47;;;25.00;96.70;;;;;;4928692;29;20119;-72
2021/07/08 05:48:14;;;;;;;9.27;3.72;;;25.00;96.70;;;;;;4915124;29;20122;-71
2021/07/08 05:50:43;;;;;;;3.95;2.80;;;25.20;96.70;;;;;;4933319;29;20554;-71
2021/07/08 05:53:12;;;;;;;6.30;3.63;;;25.20;96.70;;;;;;4910251;29;20806;-71
2021/07/08 05:55:40;;;;;;;8.20;3.75;;;25.20;96.70;;;;;;4930901;29;20050;-74
2021/07/08 05:58:10;;;;;;;4.55;3.47;;;25.10;96.70;;;;;;4912767;29;20531;-74
2021/07/08 06:00:40;;;;;;;5.47;3.08;;;25.20;96.70;;;;;;4930804;29;20413;-74
2021/07/08 06:03:09;;;;;;;8.45;3.33;;;25.30;96.70;;;;;;4909809;29;20122;-75
2021/07/08 06:05:38;;;;;;;6.70;3.35;;;25.30;96.70;;;;;;4929552;29;20047;-73
2021/07/08 06:08:10;;;;;;;6.43;3.70;;;25.40;96.70;;;;;;4911950;29;20074;-74
2021/07/08 06:10:41;;;;;;;7.30;3.47;;;25.50;96.70;;;;;;4929830;29;20110;-74
2021/07/08 06:13:10;;;;;;;10.57;5.03;;;25.40;96.70;;;;;;4925332;29;20058;-74
2021/07/08 06:15:40;;;;;;;9.32;5.03;;;25.50;96.70;;;;;;4915354;29;20130;-75
2021/07/08 06:18:09;;;;;;;6.80;3.72;;;25.60;96.70;;;;;;4929732;29;20511;-75
2021/07/08 06:20:37;;;;;;;9.55;4.38;;;25.60;96.70;;;;;;4913446;29;20524;-74
2021/07/08 06:23:05;;;;;;;11.52;3.90;;;25.70;96.70;;;;;;4895045;29;20055;-73
2021/07/08 06:25:34;;;;;;;8.40;4.03;;;25.70;96.70;;;;;;4922198;29;20859;-73
2021/07/08 06:28:03;;;;;;;8.35;3.70;;;25.60;96.70;;;;;;4915369;29;20138;-72
2021/07/08 06:30:31;;;;;;;8.00;3.50;;;25.70;96.70;;;;;;4911392;29;20043;-73
2021/07/08 06:33:01;;;;;;;10.35;4.70;;;25.70;96.70;;;;;;4924200;29;20468;-72
2021/07/08 06:35:29;;;;;;;7.18;3.80;;;25.80;96.70;;;;;;4929707;29;20044;-73
2021/07/08 06:37:58;;;;;;;9.32;4.45;;;25.80;96.70;;;;;;4910058;29;20055;-72
2021/07/08 06:40:26;;;;;;;13.80;5.78;;;26.00;96.70;;;;;;4911060;29;20139;-73
2021/07/08 06:42:57;;;;;;;10.82;5.47;;;26.10;96.70;;;;;;4909473;29;20055;-73
2021/07/08 06:45:26;;;;;;;13.13;4.93;;;26.20;96.70;;;;;;4925308;29;20291;-73
2021/07/08 06:48:02;;;;;;;11.70;5.30;;;26.20;96.70;;;;;;4926575;29;20047;-73
2021/07/08 06:50:34;;;;;;;11.73;5.28;;;26.20;96.70;;;;;;4913448;29;20052;-73
2021/07/08 06:53:03;;;;;;;9.25;4.63;;;26.20;96.70;;;;;;4924840;29;20138;-73
2021/07/08 06:55:35;;;;;;;8.57;4.15;;;26.40;96.70;;;;;;4910110;29;20058;-73
2021/07/08 06:58:04;;;;;;;11.80;4.60;;;26.40;96.70;;;;;;4924439;29;20107;-73
2021/07/08 07:00:35;;;;;;;6.30;3.75;;;26.40;96.70;;;;;;4911920;29;20051;-72
2021/07/08 07:03:05;;;;;;;7.55;4.22;;;26.50;96.70;;;;;;4928547;29;20058;-73
2021/07/08 07:05:35;;;;;;;10.80;3.88;;;26.50;96.70;;;;;;4928384;29;20115;-73
2021/07/08 07:08:03;;;;;;;7.78;3.75;;;26.50;96.70;;;;;;4925143;29;20052;-73
2021/07/08 07:10:32;;;;;;;6.50;3.92;;;26.50;96.70;;;;;;4927665;29;20046;-72
2021/07/08 07:13:02;;;;;;;8.43;3.50;;;26.40;96.70;;;;;;4926905;29;20051;-73
2021/07/08 07:15:31;;;;;;;5.43;3.17;;;26.40;96.70;;;;;;4924767;29;20060;-73
2021/07/08 07:17:59;;;;;;;5.07;2.80;;;26.60;96.70;;;;;;4927011;29;20103;-73
2021/07/08 07:20:27;;;;;;;5.60;3.38;;;26.60;96.70;;;;;;4909677;29;20048;-73
2021/07/08 07:22:57;;;;;;;8.90;3.25;;;26.80;96.70;;;;;;4916065;29;20082;-72
2021/07/08 07:25:27;;;;;;;3.92;3.10;;;26.90;96.70;;;;;;4923080;29;20055;-73
2021/07/08 07:28:01;;;;;;;5.57;2.92;;;27.00;96.70;;;;;;4925563;29;20593;-73
2021/07/08 07:30:29;;;;;;;6.68;3.05;;;27.10;96.70;;;;;;4908479;29;20039;-73
2021/07/08 07:32:57;;;;;;;8.18;2.80;;;27.20;96.70;;;;;;4931438;28;20063;-73
2021/07/08 07:35:25;;;;;;;5.75;2.72;;;27.20;96.70;;;;;;4925638;29;20539;-73
2021/07/08 07:37:54;;;;;;;5.80;2.70;;;27.10;96.70;;;;;;4911331;29;20107;-72
2021/07/08 07:40:24;;;;;;;3.10;2.10;;;27.10;96.70;;;;;;4924685;29;20040;-72
2021/07/08 07:42:53;;;;;;;3.75;2.53;;;27.30;96.70;;;;;;4911898;29;20106;-72
2021/07/08 07:45:22;;;;;;;4.13;2.22;;;27.40;96.70;;;;;;4917434;29;20055;-72
2021/07/08 07:47:52;;;;;;;4.03;2.25;;;27.50;96.70;;;;;;4929517;29;20450;-72
2021/07/08 07:50:24;;;;;;;4.82;2.85;;;27.40;96.70;;;;;;4928167;29;20047;-72
2021/07/08 07:52:55;;;;;;;5.00;2.60;;;27.50;96.70;;;;;;4908841;29;20511;-72
2021/07/08 07:55:28;;;;;;;4.88;2.50;;;27.60;96.70;;;;;;4930005;29;20048;-72
2021/07/08 07:57:58;;;;;;;4.35;2.83;;;27.60;96.70;;;;;;4925965;29;20056;-72
2021/07/08 08:00:27;;;;;;;5.10;2.50;;;27.80;96.70;;;;;;4912577;29;20066;-71
2021/07/08 08:02:56;;;;;;;3.83;2.60;;;27.90;96.70;;;;;;4911421;29;20047;-73
2021/07/08 08:10:45;;;;;;;5.53;2.75;;;28.30;96.70;;;;;;4927259;29;20040;-74
2021/07/08 08:13:14;;;;;;;5.63;2.45;;;28.40;96.70;;;;;;4908760;29;20043;-72
2021/07/08 08:15:44;;;;;;;4.55;2.78;;;28.60;96.70;;;;;;4909059;29;20056;-73
2021/07/08 08:18:13;;;;;;;6.30;2.78;;;28.70;96.70;;;;;;4925868;29;20039;-73
2021/07/08 08:20:41;;;;;;;5.03;3.00;;;28.70;96.70;;;;;;4897273;29;20058;-72
2021/07/08 08:23:10;;;;;;;7.07;3.40;;;28.80;96.70;;;;;;4923347;29;20035;-73
2021/07/08 08:25:38;;;;;;;5.18;3.08;;;28.80;96.70;;;;;;4925906;29;20050;-73
2021/07/08 08:28:09;;;;;;;5.32;2.97;;;28.70;96.70;;;;;;4926090;29;20047;-73
2021/07/08 08:30:37;;;;;;;6.50;2.67;;;28.70;96.70;;;;;;4930953;29;20532;-72
2021/07/08 08:33:06;;;;;;;5.43;2.65;;;28.60;96.70;;;;;;4927962;29;20536;-72
2021/07/08 08:35:34;;;;;;;4.47;2.92;;;28.50;96.70;;;;;;4926545;29;20683;-73
2021/07/08 08:38:04;;;;;;;7.10;2.78;;;28.40;96.70;;;;;;4908178;29;20036;-72
2021/07/08 08:40:32;;;;;;;4.18;2.67;;;28.50;96.70;;;;;;4929943;29;20047;-72
2021/07/08 08:43:00;;;;;;;9.20;3.08;;;28.50;96.70;;;;;;4927654;29;20046;-72
2021/07/08 08:45:30;;;;;;;6.72;3.03;;;28.50;96.70;;;;;;4909299;29;20203;-73
2021/07/08 08:48:01;;;;;;;6.85;3.00;;;28.50;96.70;;;;;;4926384;28;20047;-73
2021/07/08 08:50:31;;;;;;;6.78;2.75;;;28.60;96.70;;;;;;4926700;29;20114;-72
2021/07/08 08:52:59;;;;;;;5.75;3.10;;;28.70;96.70;;;;;;4923882;29;20074;-73
2021/07/08 08:55:28;;;;;;;6.45;3.10;;;28.80;96.70;;;;;;4923279;29;20044;-72
2021/07/08 08:57:56;;;;;;;5.53;2.75;;;28.80;96.70;;;;;;4924980;29;20516;-72
2021/07/08 09:00:49;;;;;;;7.25;2.63;;;28.70;96.70;;;;;;4926847;29;20151;-73
2021/07/08 09:03:19;;;;;;;9.43;3.72;;;28.70;96.70;;;;;;4924688;29;20052;-73
2021/07/08 09:05:57;;;;;;;4.57;2.58;;;28.70;96.70;;;;;;4922572;29;20485;-73
2021/07/08 09:08:25;;;;;;;3.95;2.45;;;28.80;96.70;;;;;;4923626;28;20466;-73
2021/07/08 09:11:05;;;;;;;6.55;2.70;;;28.90;95.80;;;;;;4923853;29;20046;-73
2021/07/08 09:13:52;;;;;;;3.85;2.60;;;28.90;95.00;;;;;;4928807;29;20043;-72
2021/07/08 09:16:24;;;;;;;5.78;2.60;;;29.10;95.60;;;;;;4910052;28;20047;-73
2021/07/08 09:19:04;;;;;;;5.28;2.50;;;29.30;95.30;;;;;;4927982;29;20172;-74
2021/07/08 09:21:34;;;;;;;6.07;2.70;;;29.40;95.10;;;;;;4926693;29;20047;-73
2021/07/08 09:24:14;;;;;;;4.18;1.90;;;29.60;94.30;;;;;;4927685;29;20050;-73
2021/07/08 09:26:45;;;;;;;3.55;2.13;;;29.60;93.90;;;;;;4929642;29;20040;-73
2021/07/08 09:29:18;;;;;;;4.07;2.47;;;29.50;93.10;;;;;;4928109;29;20047;-73
2021/07/08 09:31:56;;;;;;;6.13;2.40;;;29.50;93.50;;;;;;4930033;29;20125;-73
2021/07/08 09:34:27;;;;;;;3.90;2.10;;;29.70;93.60;;;;;;4928022;29;20048;-75
2021/07/08 09:37:08;;;;;;;3.83;2.13;;;29.70;93.20;;;;;;4928635;29;20493;-74
2021/07/08 09:39:39;;;;;;;5.68;2.33;;;29.80;92.70;;;;;;4928275;29;20183;-74
2021/07/08 09:42:08;;;;;;;4.05;2.10;;;29.80;92.30;;;;;;4936357;29;20129;-74
2021/07/08 09:44:37;;;;;;;6.40;2.63;;;29.90;92.00;;;;;;4929942;29;20075;-74
2021/07/08 09:47:19;;;;;;;3.17;2.15;;;29.90;91.70;;;;;;4930462;29;20039;-74
2021/07/08 09:49:48;;;;;;;4.57;2.47;;;30.00;91.60;;;;;;4928159;29;20181;-74
2021/07/08 09:52:16;;;;;;;5.10;2.33;;;30.10;90.30;;;;;;4924530;29;20036;-74
2021/07/08 09:57:41;;;;;;;6.55;2.05;;;30.10;90.40;;;;;;4925529;29;20044;-75
2021/07/08 10:00:34;;;;;;;5.35;2.45;;;30.00;89.10;;;;;;4912131;29;20047;-75
2021/07/08 10:03:05;;;;;;;4.07;2.03;;;30.10;89.10;;;;;;4913748;29;20047;-74
2021/07/08 10:05:37;;;;;;;3.75;1.90;;;30.20;89.30;;;;;;4927993;29;20059;-75
2021/07/08 10:08:10;;;;;;;3.95;2.22;;;30.30;88.90;;;;;;4912801;29;20054;-75
2021/07/08 10:10:41;;;;;;;4.82;1.80;;;30.40;88.30;;;;;;4928152;29;20216;-75
2021/07/08 10:13:10;;;;;;;4.15;1.73;;;30.50;88.60;;;;;;4926028;28;20044;-75
2021/07/08 10:15:42;;;;;;;2.90;1.40;;;30.70;88.20;;;;;;4928812;29;20055;-76
2021/07/08 10:18:17;;;;;;;3.13;1.30;;;30.80;87.30;;;;;;4927030;29;20044;-76
2021/07/08 10:20:50;;;;;;;1.98;1.77;;;30.80;86.40;;;;;;4932012;29;20044;-75
2021/07/08 10:23:19;;;;;;;2.22;1.30;;;30.80;86.80;;;;;;4927555;29;20049;-75
2021/07/08 10:25:49;;;;;;;3.22;1.90;;;31.00;86.40;;;;;;4912755;29;20047;-75
2021/07/08 10:28:42;;;;;;;2.97;1.50;;;30.90;87.00;;;;;;4914126;29;20500;-75
2021/07/08 10:31:15;;;;;;;2.40;1.52;;;31.00;87.90;;;;;;4927369;29;20044;-75
2021/07/08 10:34:17;;;;;;;3.25;1.40;;;31.10;88.80;;;;;;4927089;29;20054;-74
2021/07/08 10:36:49;;;;;;;2.78;1.60;;;31.00;89.30;;;;;;4878747;29;20138;-75
2021/07/08 10:39:21;;;;;;;3.40;1.73;;;31.10;89.50;;;;;;4924527;29;20139;-74
2021/07/08 10:41:54;;;;;;;4.85;1.60;;;31.20;89.20;;;;;;4928695;29;20385;-74
2021/07/08 10:44:46;;;;;;;4.30;1.50;;;31.40;89.20;;;;;;4929281;29;20048;-75
2021/07/08 10:47:37;;;;;;;3.75;1.67;;;31.50;88.90;;;;;;4914481;29;20056;-73
2021/07/08 10:50:36;;;;;;;3.50;1.52;;;31.60;88.50;;;;;;4910780;29;20494;-74
2021/07/08 10:53:17;;;;;;;2.15;1.60;;;31.70;88.80;;;;;;4927709;29;20071;-74
2021/07/08 10:55:48;;;;;;;2.80;1.50;;;32.00;88.40;;;;;;4926596;29;20076;-73
2021/07/08 10:58:47;;;;;;;3.97;1.52;;;31.90;88.70;;;;;;4907940;29;20135;-74
2021/07/08 11:01:52;;;;;;;1.98;1.27;;;31.90;89.20;;;;;;4912927;29;20063;-74
2021/07/08 11:04:41;;;;;;;2.80;1.40;;;31.70;89.50;;;;;;4922891;29;20043;-73
2021/07/08 11:07:16;;;;;;;6.95;1.70;;;31.90;89.60;;;;;;4902481;29;20048;-73
2021/07/08 11:09:58;;;;;;;4.07;1.60;;;31.70;90.00;;;;;;4923778;29;20043;-72
2021/07/08 11:12:32;;;;;;;3.20;1.65;;;31.60;90.00;;;;;;4919970;28;20070;-73
2021/07/08 11:15:01;;;;;;;3.45;1.60;;;31.60;90.60;;;;;;4927220;29;20062;-73
2021/07/08 11:17:38;;;;;;;3.25;1.48;;;31.70;90.40;;;;;;4921807;29;20044;-73
2021/07/08 11:20:29;;;;;;;6.25;2.10;;;32.00;90.00;;;;;;4926346;29;20055;-73
2021/07/08 11:23:28;;;;;;;3.22;1.85;;;32.20;89.70;;;;;;4920826;29;20035;-73
2021/07/08 11:25:56;;;;;;;2.40;1.58;;;32.30;89.20;;;;;;4920519;29;20072;-73
2021/07/08 11:28:29;;;;;;;2.92;1.40;;;32.30;89.90;;;;;;4911547;29;20095;-73
2021/07/08 11:30:59;;;;;;;4.20;1.55;;;32.30;89.10;;;;;;4892507;29;20082;-72
2021/07/08 11:33:29;;;;;;;2.75;1.70;;;32.30;89.60;;;;;;4911115;29;20051;-73
2021/07/08 11:36:01;;;;;;;2.20;1.50;;;32.50;89.70;;;;;;4924980;29;20048;-72
2021/07/08 11:38:32;;;;;;;3.15;1.90;;;32.60;89.20;;;;;;4933045;29;20067;-73
2021/07/08 11:41:01;;;;;;;4.13;1.98;;;32.60;89.40;;;;;;4923876;29;20314;-73
2021/07/08 11:43:32;;;;;;;4.75;1.85;;;32.80;89.50;;;;;;4925856;29;20513;-73
2021/07/08 11:46:06;;;;;;;4.13;2.00;;;32.70;89.40;;;;;;4929455;29;20060;-73
2021/07/08 11:48:37;;;;;;;2.42;1.75;;;32.70;89.60;;;;;;4930417;28;20043;-72
2021/07/08 11:51:13;;;;;;;4.13;1.92;;;32.80;89.40;;;;;;4929517;29;20099;-73
2021/07/08 11:53:43;;;;;;;;;;;32.50;90.20;;;;;;4909385;29;20520;-73
2021/07/08 11:56:12;;;;;;;4.38;2.20;;;32.50;90.90;;;;;;4929374;29;19982;-73
2021/07/08 11:58:40;;;;;;;1.77;1.50;;;32.70;91.10;;;;;;4925735;29;20541;-73
2021/07/08 12:01:10;;;;;;;5.88;1.83;;;32.80;91.00;;;;;;4924332;29;20506;-73
2021/07/08 12:03:40;;;;;;;6.50;2.17;;;32.70;91.40;;;;;;4924830;29;20043;-72
2021/07/08 12:06:09;;;;;;;5.68;2.22;;;32.80;91.80;;;;;;4928806;29;20048;-73
2021/07/08 12:08:40;;;;;;;3.40;1.77;;;32.80;91.80;;;;;;4924327;29;20131;-73
2021/07/08 12:13:47;;;;;;;6.43;1.83;;;32.90;91.00;;;;;;4924986;29;20087;-73
2021/07/08 12:16:17;;;;;;;4.53;2.00;;;33.00;91.00;;;;;;4929333;29;20142;-73
2021/07/08 12:18:48;;;;;;;4.65;1.98;;;33.10;91.20;;;;;;4910461;29;20048;-73
2021/07/08 12:21:19;;;;;;;5.78;2.25;;;33.30;90.90;;;;;;4910754;29;20054;-73
2021/07/08 12:23:48;;;;;;;3.75;2.08;;;33.40;90.10;;;;;;4923172;29;20052;-74
2021/07/08 12:26:31;;;;;;;3.20;2.00;;;33.10;90.30;;;;;;4925161;29;20129;-73
2021/07/08 12:29:27;;;;;;;3.47;1.90;;;32.90;90.60;;;;;;4921967;29;20047;-72
2021/07/08 12:31:57;;;;;;;6.25;2.08;;;32.90;91.30;;;;;;4924624;29;20094;-73
2021/07/08 12:34:35;;;;;;;4.75;2.17;;;33.10;90.80;;;;;;4909204;29;20099;-72
2021/07/08 12:37:14;;;;;;;3.95;1.98;;;32.90;90.80;;;;;;4924085;29;20405;-73
2021/07/08 12:39:43;;;;;;;4.63;1.88;;;33.00;91.20;;;;;;4922612;29;20054;-73
2021/07/08 12:42:17;;;;;;;3.15;2.08;;;33.20;90.70;;;;;;4895149;29;20047;-73
2021/07/08 12:44:47;;;;;;;6.93;2.05;;;33.20;90.50;;;;;;4929734;29;20056;-73
2021/07/08 12:47:15;;;;;;;5.53;1.67;;;32.90;91.40;;;;;;4924598;29;20537;-73
2021/07/08 12:49:46;;;;;;;4.30;2.58;;;32.90;91.70;;;;;;4911572;29;20054;-73
2021/07/08 12:52:15;;;;;;;7.18;2.28;;;32.80;91.90;;;;;;4921117;28;20130;-74
2021/07/08 12:54:44;;;;;;;5.57;2.33;;;32.60;91.80;;;;;;4931446;29;20039;-73
2021/07/08 12:57:14;;;;;;;5.65;2.40;;;32.70;92.00;;;;;;4907719;29;20075;-73
2021/07/08 12:59:55;;;;;;;4.72;2.40;;;32.90;91.80;;;;;;4910341;29;20043;-73
2021/07/08 13:02:24;;;;;;;4.65;1.92;;;33.00;91.50;;;;;;4897262;28;20047;-73
2021/07/08 13:05:05;;;;;;;6.07;2.03;;;33.00;90.40;;;;;;4930127;29;20080;-73
2021/07/08 13:07:34;;;;;;;7.88;2.10;;;33.40;90.20;;;;;;4905106;29;20579;-74
2021/07/08 13:10:06;;;;;;;8.30;2.30;;;33.60;89.30;;;;;;4909007;29;20772;-73
2021/07/08 13:12:35;;;;;;;6.35;2.15;;;33.80;88.30;;;;;;4923752;29;20526;-73
2021/07/08 13:15:19;;;;;;;7.43;2.00;;;33.90;88.50;;;;;;4924034;29;20074;-73
2021/07/08 13:18:01;;;;;;;4.60;2.20;;;34.20;86.80;;;;;;4907715;29;20131;-73